Time;durP1;ratioP1;P1;durP2;ratioP2;P2;SDS_P1;SDS_P2;PMS_P1;PMS_P2;Temp;Humidity;BMP_temperature;BMP_pressure;BME280_temperature;BME280_humidity;BME280_pressure;Samples;Min_cycle;Max_cycle;Signal;HPM_P1;HPM_P2
2023/05/07 00:01:40;;;;;;;75.53;38.73;;;;;;;;;;6289790;28;20189;-64
2023/05/07 00:04:41;;;;;;;82.43;33.07;;;;;;;;;;6302914;28;20197;-64
2023/05/07 00:07:42;;;;;;;82.70;37.13;;;;;;;;;;6277873;28;20248;-64
2023/05/07 00:10:43;;;;;;;64.20;26.17;;;;;;;;;;6309010;28;20327;-64
2023/05/07 00:13:44;;;;;;;53.53;23.37;;;;;;;;;;6296479;28;20189;-64
2023/05/07 00:16:45;;;;;;;68.63;30.30;;;;;;;;;;6292732;28;20232;-64
2023/05/07 00:19:46;;;;;;;49.80;28.93;;;;;;;;;;6302098;28;20196;-64
2023/05/07 00:22:47;;;;;;;72.50;29.27;;;;;;;;;;6291284;28;20186;-65
2023/05/07 00:25:50;;;;;;;53.27;27.97;;;13.10;99.90;;;;;;6280925;28;20234;-64
2023/05/07 00:28:51;;;;;;;59.53;26.07;;;13.10;99.90;;;;;;6270255;28;20209;-64
2023/05/07 00:31:53;;;;;;;52.17;26.97;;;13.10;99.90;;;;;;6284140;28;20188;-64
2023/05/07 00:34:55;;;;;;;60.33;28.47;;;13.10;99.90;;;;;;6303836;28;20193;-64
2023/05/07 00:37:55;;;;;;;63.60;28.37;;;13.10;99.90;;;;;;6261271;28;20244;-65
2023/05/07 00:40:56;;;;;;;56.27;27.20;;;13.00;99.90;;;;;;6264359;28;20232;-64
2023/05/07 00:43:57;;;;;;;53.27;27.57;;;13.00;99.90;;;;;;6280473;28;20194;-63
2023/05/07 00:46:58;;;;;;;58.23;29.30;;;12.90;99.90;;;;;;6260309;28;20209;-64
2023/05/07 00:49:59;;;;;;;52.97;26.60;;;12.90;99.90;;;;;;6289040;28;20191;-65
2023/05/07 00:53:00;;;;;;;40.30;25.07;;;12.90;99.90;;;;;;6281338;28;20213;-63
2023/05/07 00:56:02;;;;;;;48.80;26.70;;;12.80;99.90;;;;;;6271042;28;20209;-64
2023/05/07 00:59:02;;;;;;;35.63;20.67;;;12.70;99.90;;;;;;6296390;28;20238;-63
2023/05/07 01:02:03;;;;;;;43.57;23.77;;;12.70;99.90;;;;;;6282525;28;20211;-64
2023/05/07 01:05:07;;;;;;;29.90;19.93;;;12.60;99.90;;;;;;6281510;28;20185;-64
2023/05/07 01:08:08;;;;;;;34.47;22.37;;;12.50;99.90;;;;;;6296892;28;20215;-64
2023/05/07 01:11:10;;;;;;;23.80;19.40;;;12.50;99.90;;;;;;6291467;28;20216;-64
2023/05/07 01:14:11;;;;;;;25.23;18.03;;;12.50;99.90;;;;;;6278867;28;20200;-64
2023/05/07 01:17:12;;;;;;;41.00;21.80;;;12.40;99.90;;;;;;6257140;28;20189;-64
2023/05/07 01:20:13;;;;;;;39.60;22.80;;;12.30;99.90;;;;;;6313473;28;20192;-65
2023/05/07 01:23:15;;;;;;;43.07;23.50;;;24.00;50.00;;;;;;6290171;28;20275;-65
2023/05/07 01:26:19;;;;;;;47.80;23.17;;;12.30;99.90;;;;;;6297188;28;20273;-65
2023/05/07 01:29:19;;;;;;;45.40;22.37;;;12.20;99.90;;;;;;6260716;28;20197;-65
2023/05/07 01:32:23;;;;;;;42.77;22.60;;;;;;;;;;6295369;28;20186;-65
2023/05/07 01:35:29;;;;;;;37.77;20.47;;;;;;;;;;6294535;28;20181;-64
2023/05/07 01:38:31;;;;;;;39.50;21.93;;;;;;;;;;6307793;28;20256;-64
2023/05/07 01:41:33;;;;;;;43.87;24.43;;;;;;;;;;6297839;28;20217;-65
2023/05/07 01:44:34;;;;;;;33.03;20.50;;;;;;;;;;6289665;28;20189;-65
2023/05/07 01:47:36;;;;;;;49.17;23.60;;;;;;;;;;6305326;28;20213;-65
2023/05/07 01:50:37;;;;;;;52.60;25.93;;;;;;;;;;6292927;28;20188;-65
2023/05/07 01:53:40;;;;;;;34.17;17.43;;;;;;;;;;6284542;28;20196;-65
2023/05/07 01:56:41;;;;;;;46.03;23.23;;;;;;;;;;6298918;28;20189;-65
2023/05/07 01:59:42;;;;;;;42.27;21.37;;;;;;;;;;6307909;28;20185;-65
2023/05/07 02:02:43;;;;;;;33.03;20.63;;;;;;;;;;6296407;28;20200;-65
2023/05/07 02:05:44;;;;;;;52.27;25.17;;;;;;;;;;6299675;28;20207;-65
2023/05/07 02:08:46;;;;;;;47.20;24.73;;;;;;;;;;6290677;28;20224;-65
2023/05/07 02:11:47;;;;;;;50.03;22.23;;;;;;;;;;6311932;28;20288;-65
2023/05/07 02:14:48;;;;;;;38.27;20.57;;;;;;;;;;6295242;28;20201;-65
2023/05/07 02:18:06;;;;;;;43.83;20.60;;;;;;;;;;6317779;28;20234;-65
2023/05/07 02:21:07;;;;;;;34.10;17.67;;;;;;;;;;6279964;28;20261;-65
2023/05/07 02:24:08;;;;;;;45.13;22.70;;;;;;;;;;6285460;28;20199;-65
2023/05/07 02:27:09;;;;;;;40.30;21.00;;;;;;;;;;6296865;28;20264;-65
2023/05/07 02:30:10;;;;;;;38.47;19.47;;;;;;;;;;6317834;28;20186;-65
2023/05/07 02:33:13;;;;;;;18.10;12.70;;;;;;;;;;6306103;28;20224;-65
2023/05/07 02:36:14;;;;;;;38.73;18.77;;;;;;;;;;6311842;28;20260;-65
2023/05/07 02:39:16;;;;;;;41.00;20.73;;;;;;;;;;6303403;28;20192;-65
2023/05/07 02:42:17;;;;;;;34.20;17.90;;;;;;;;;;6299166;28;20198;-65
2023/05/07 02:45:18;;;;;;;35.10;17.30;;;;;;;;;;6312516;28;20200;-65
2023/05/07 02:48:19;;;;;;;29.30;19.53;;;;;;;;;;6296670;28;20220;-65
2023/05/07 02:51:21;;;;;;;44.27;20.40;;;;;;;;;;6300680;28;20189;-65
2023/05/07 02:54:22;;;;;;;36.67;18.33;;;;;;;;;;6296121;28;20259;-65
2023/05/07 02:57:23;;;;;;;35.33;17.43;;;;;;;;;;6303546;28;20218;-64
2023/05/07 03:00:24;;;;;;;15.10;11.63;;;;;;;;;;6275389;28;20201;-64
2023/05/07 03:03:25;;;;;;;31.37;18.17;;;;;;;;;;6291039;28;20189;-64
2023/05/07 03:06:26;;;;;;;25.70;15.40;;;;;;;;;;6305440;28;20192;-65
2023/05/07 03:09:27;;;;;;;36.27;19.87;;;;;;;;;;6285249;28;20272;-64
2023/05/07 03:12:29;;;;;;;21.40;13.30;;;;;;;;;;6284953;28;20193;-64
2023/05/07 03:15:30;;;;;;;35.33;15.73;;;;;;;;;;6295589;28;20185;-65
2023/05/07 03:18:31;;;;;;;36.00;19.57;;;;;;;;;;6305216;28;20185;-65
2023/05/07 03:21:33;;;;;;;19.90;12.03;;;;;;;;;;6279118;28;20186;-65
2023/05/07 03:24:34;;;;;;;38.73;20.93;;;;;;;;;;6296602;28;20186;-65
2023/05/07 03:27:35;;;;;;;24.07;13.77;;;;;;;;;;6299400;28;20205;-65
2023/05/07 03:30:36;;;;;;;35.43;18.30;;;;;;;;;;6284138;28;20197;-65
2023/05/07 03:33:39;;;;;;;36.53;19.97;;;;;;;;;;6311238;28;20193;-65
2023/05/07 03:36:40;;;;;;;35.40;17.23;;;;;;;;;;6310969;28;20236;-65
2023/05/07 03:39:41;;;;;;;50.53;22.40;;;;;;;;;;6285820;28;20189;-65
2023/05/07 03:42:42;;;;;;;39.40;20.00;;;;;;;;;;6309296;28;20181;-65
2023/05/07 03:45:43;;;;;;;42.07;21.27;;;;;;;;;;6297520;28;20185;-65
2023/05/07 03:48:44;;;;;;;32.70;16.73;;;;;;;;;;6301569;28;20224;-65
2023/05/07 03:51:45;;;;;;;30.07;16.37;;;;;;;;;;6301123;28;20231;-65
2023/05/07 03:54:46;;;;;;;19.43;14.10;;;;;;;;;;6306416;28;20207;-65
2023/05/07 03:57:47;;;;;;;30.37;13.93;;;;;;;;;;6308438;28;20193;-65
2023/05/07 04:00:48;;;;;;;27.13;14.43;;;;;;;;;;6274301;28;20193;-65
2023/05/07 04:03:49;;;;;;;46.00;21.77;;;;;;;;;;6310309;28;20245;-65
2023/05/07 04:06:51;;;;;;;27.97;15.67;;;;;;;;;;6286436;28;20209;-65
2023/05/07 04:09:52;;;;;;;44.23;20.43;;;;;;;;;;6306228;28;20182;-65
2023/05/07 04:12:53;;;;;;;47.47;21.83;;;;;;;;;;6282232;28;20193;-65
2023/05/07 04:15:55;;;;;;;36.37;18.40;;;;;;;;;;6294356;28;20197;-65
2023/05/07 04:18:56;;;;;;;34.57;17.17;;;;;;;;;;6300210;28;20231;-65
2023/05/07 04:21:57;;;;;;;46.47;22.33;;;;;;;;;;6294877;28;20201;-64
2023/05/07 04:24:58;;;;;;;42.73;19.97;;;;;;;;;;6299696;28;20203;-65
2023/05/07 04:27:59;;;;;;;42.90;22.50;;;;;;;;;;6301441;28;20296;-65
2023/05/07 04:31:00;;;;;;;37.60;18.33;;;;;;;;;;6295068;28;20201;-65
2023/05/07 04:34:01;;;;;;;38.43;19.10;;;;;;;;;;6309683;28;20197;-65
2023/05/07 04:37:02;;;;;;;34.17;17.57;;;;;;;;;;6289781;28;20251;-65
2023/05/07 04:40:03;;;;;;;38.67;19.03;;;;;;;;;;6299513;28;20255;-63
2023/05/07 04:43:04;;;;;;;27.10;15.07;;;;;;;;;;6302621;28;20316;-63
2023/05/07 04:46:05;;;;;;;38.50;17.60;;;;;;;;;;6299429;28;20287;-63
2023/05/07 04:49:06;;;;;;;26.03;15.30;;;;;;;;;;6316052;28;20323;-65
2023/05/07 04:52:07;;;;;;;43.60;20.80;;;;;;;;;;6290310;28;20194;-62
2023/05/07 04:55:09;;;;;;;35.37;16.73;;;;;;;;;;6311202;28;20199;-62
2023/05/07 04:58:10;;;;;;;32.73;16.10;;;;;;;;;;6311065;28;20200;-62
2023/05/07 05:01:11;;;;;;;50.23;21.90;;;;;;;;;;6307014;28;20219;-62
2023/05/07 05:04:12;;;;;;;47.50;22.40;;;;;;;;;;6289663;28;20217;-62
2023/05/07 05:07:13;;;;;;;41.67;20.30;;;;;;;;;;6275974;28;20250;-65
2023/05/07 05:10:16;;;;;;;51.73;22.30;;;;;;;;;;6281505;28;20190;-66
2023/05/07 05:13:17;;;;;;;42.80;22.10;;;;;;;;;;6323241;28;20189;-66
2023/05/07 05:16:18;;;;;;;48.33;21.07;;;;;;;;;;6280851;28;20227;-65
2023/05/07 05:19:19;;;;;;;47.10;21.30;;;;;;;;;;6292434;28;20189;-65
2023/05/07 05:22:20;;;;;;;30.43;14.70;;;;;;;;;;6296312;28;20712;-65
2023/05/07 05:25:21;;;;;;;43.80;20.80;;;;;;;;;;6294841;28;20228;-64
2023/05/07 05:28:22;;;;;;;49.87;22.07;;;;;;;;;;6303780;28;20209;-65
2023/05/07 05:31:23;;;;;;;28.93;14.70;;;;;;;;;;6301699;28;20188;-63
2023/05/07 05:34:24;;;;;;;35.33;18.73;;;;;;;;;;6292104;28;20278;-64
2023/05/07 05:37:25;;;;;;;28.40;15.77;;;;;;;;;;6306157;28;20248;-63
2023/05/07 05:40:26;;;;;;;27.00;13.67;;;;;;;;;;6302280;28;20195;-64
2023/05/07 05:43:27;;;;;;;36.43;18.63;;;;;;;;;;6311592;28;20237;-65
2023/05/07 05:46:28;;;;;;;37.13;19.20;;;;;;;;;;6283432;28;20201;-64
2023/05/07 05:49:29;;;;;;;39.23;17.33;;;;;;;;;;6272767;28;20220;-64
2023/05/07 05:52:30;;;;;;;37.77;18.17;;;;;;;;;;6278193;28;20189;-64
2023/05/07 05:55:32;;;;;;;29.20;15.27;;;;;;;;;;6315037;28;20192;-63
2023/05/07 05:58:33;;;;;;;33.67;16.20;;;;;;;;;;6290491;28;20261;-65
2023/05/07 06:01:34;;;;;;;34.80;17.13;;;;;;;;;;6294554;28;20276;-64
2023/05/07 06:04:35;;;;;;;28.30;14.13;;;;;;;;;;6311007;28;20289;-65
2023/05/07 06:07:36;;;;;;;31.20;16.97;;;;;;;;;;6314425;28;20212;-63
2023/05/07 06:10:37;;;;;;;29.80;14.77;;;;;;;;;;6295231;28;20192;-62
2023/05/07 06:13:39;;;;;;;25.23;15.23;;;;;;;;;;6308096;28;20217;-62
2023/05/07 06:16:40;;;;;;;17.33;12.43;;;;;;;;;;6292724;28;20185;-62
2023/05/07 06:19:41;;;;;;;23.87;14.23;;;;;;;;;;6293676;28;20221;-62
2023/05/07 06:22:42;;;;;;;21.80;13.60;;;;;;;;;;6300999;28;20189;-62
2023/05/07 06:25:46;;;;;;;17.00;11.13;;;;;;;;;;6280383;28;20189;-63
2023/05/07 06:28:47;;;;;;;21.27;12.57;;;;;;;;;;6301602;28;20267;-63
2023/05/07 06:31:48;;;;;;;21.00;12.30;;;;;;;;;;6309018;28;20207;-63
2023/05/07 06:34:49;;;;;;;16.93;10.13;;;;;;;;;;6311521;28;20188;-62
2023/05/07 06:37:50;;;;;;;26.53;15.43;;;;;;;;;;6284802;28;20245;-63
2023/05/07 06:40:52;;;;;;;25.87;16.57;;;;;;;;;;6290448;28;20279;-62
2023/05/07 06:43:53;;;;;;;22.80;12.90;;;;;;;;;;6299693;28;20194;-63
2023/05/07 06:46:54;;;;;;;27.00;16.87;;;;;;;;;;6291418;28;20246;-63
2023/05/07 06:49:55;;;;;;;29.40;18.23;;;;;;;;;;6319996;28;20230;-63
2023/05/07 06:52:56;;;;;;;36.33;17.43;;;;;;;;;;6301079;28;20247;-62
2023/05/07 06:55:57;;;;;;;22.50;14.67;;;;;;;;;;6284963;28;20198;-62
2023/05/07 06:58:58;;;;;;;21.70;15.70;;;;;;;;;;6279077;28;20213;-65
2023/05/07 07:01:59;;;;;;;22.37;14.00;;;;;;;;;;6289989;28;20236;-63
2023/05/07 07:05:00;;;;;;;17.80;12.80;;;;;;;;;;6298226;28;20192;-63
2023/05/07 07:08:01;;;;;;;30.37;16.13;;;;;;;;;;6285911;28;20242;-62
2023/05/07 07:11:02;;;;;;;26.43;14.70;;;;;;;;;;6316846;28;20245;-62
2023/05/07 07:14:04;;;;;;;22.10;13.33;;;;;;;;;;6300821;28;20190;-62
2023/05/07 07:17:06;;;;;;;29.20;14.30;;;;;;;;;;6293508;28;20200;-62
2023/05/07 07:20:07;;;;;;;17.17;12.37;;;;;;;;;;6295802;28;20189;-62
2023/05/07 07:23:08;;;;;;;22.00;13.30;;;;;;;;;;6296249;28;20204;-61
2023/05/07 07:26:09;;;;;;;13.70;12.07;;;;;;;;;;6282753;28;20214;-62
2023/05/07 07:29:10;;;;;;;21.10;12.03;;;;;;;;;;6307524;28;20221;-62
2023/05/07 07:32:11;;;;;;;18.20;11.10;;;;;;;;;;6279051;28;20220;-63
2023/05/07 07:35:12;;;;;;;18.60;11.93;;;;;;;;;;6308579;28;20197;-68
2023/05/07 07:38:13;;;;;;;21.57;12.77;;;;;;;;;;6298526;28;20236;-63
2023/05/07 07:41:14;;;;;;;11.57;9.90;;;;;;;;;;6299478;28;20196;-63
2023/05/07 07:44:15;;;;;;;27.40;15.37;;;;;;;;;;6298303;28;20206;-64
2023/05/07 07:47:16;;;;;;;15.20;12.43;;;;;;;;;;6278183;28;20255;-64
2023/05/07 07:50:17;;;;;;;20.60;13.20;;;;;;;;;;6299106;28;20197;-65
2023/05/07 07:53:18;;;;;;;32.17;16.13;;;;;;;;;;6279862;28;20204;-67
2023/05/07 07:56:20;;;;;;;23.00;13.13;;;;;;;;;;6318421;28;20186;-63
2023/05/07 07:59:21;;;;;;;21.83;13.83;;;;;;;;;;6295071;28;20276;-63
2023/05/07 08:02:22;;;;;;;29.53;15.70;;;;;;;;;;6295370;28;20215;-63
2023/05/07 08:05:23;;;;;;;28.30;14.23;;;;;;;;;;6289799;28;20201;-64
2023/05/07 08:08:25;;;;;;;24.47;13.90;;;;;;;;;;6311540;28;20219;-64
2023/05/07 08:11:26;;;;;;;26.57;13.97;;;;;;;;;;6291738;28;20189;-63
2023/05/07 08:14:28;;;;;;;22.87;15.90;;;;;;;;;;6278150;28;20275;-61
2023/05/07 08:17:29;;;;;;;19.93;13.50;;;;;;;;;;6305997;28;20232;-62
2023/05/07 08:20:30;;;;;;;24.57;15.67;;;;;;;;;;6296915;28;20259;-62
2023/05/07 08:23:31;;;;;;;16.77;15.07;;;;;;;;;;6289408;28;20193;-62
2023/05/07 08:26:32;;;;;;;16.60;12.37;;;;;;;;;;6281294;28;20177;-62
2023/05/07 08:29:33;;;;;;;31.30;15.67;;;;;;;;;;6284650;28;20220;-62
2023/05/07 08:32:34;;;;;;;13.63;12.03;;;;;;;;;;6302182;28;20185;-62
2023/05/07 08:35:35;;;;;;;9.80;8.53;;;;;;;;;;6293233;28;20288;-61
2023/05/07 08:38:36;;;;;;;11.43;9.87;;;;;;;;;;6286597;28;20241;-62
2023/05/07 08:41:38;;;;;;;11.47;10.27;;;;;;;;;;6293822;28;20247;-61
2023/05/07 08:44:39;;;;;;;17.50;12.03;;;;;;;;;;6275128;28;20216;-62
2023/05/07 08:47:45;;;;;;;16.93;11.63;;;;;;;;;;6299256;28;20201;-63
2023/05/07 08:50:46;;;;;;;10.77;9.67;;;;;;;;;;6307819;28;20204;-63
2023/05/07 08:53:48;;;;;;;10.27;9.27;;;;;;;;;;6296412;28;20214;-63
2023/05/07 08:56:49;;;;;;;8.63;7.83;;;;;;;;;;6295854;28;20200;-62
2023/05/07 08:59:50;;;;;;;9.00;8.20;;;;;;;;;;6270026;28;20209;-61
2023/05/07 09:02:53;;;;;;;8.70;7.80;;;;;;;;;;6266610;28;20193;-62
2023/05/07 09:05:54;;;;;;;9.80;8.30;;;;;;;;;;6294716;28;20268;-63
2023/05/07 09:08:55;;;;;;;7.80;7.13;;;;;;;;;;6282232;28;20222;-61
2023/05/07 09:12:00;;;;;;;8.27;7.47;;;;;;;;;;6294686;28;20269;-61
2023/05/07 09:15:02;;;;;;;7.63;6.83;;;;;;;;;;6295816;28;20190;-61
2023/05/07 09:18:03;;;;;;;6.80;6.10;;;;;;;;;;6301476;28;20217;-62
2023/05/07 09:21:04;;;;;;;8.20;7.50;;;;;;;;;;6285216;28;20280;-62
2023/05/07 09:24:05;;;;;;;8.00;7.27;;;;;;;;;;6280493;28;20189;-60
2023/05/07 09:27:08;;;;;;;6.90;6.33;;;;;;;;;;6287451;28;20208;-62
2023/05/07 09:30:09;;;;;;;6.90;6.40;;;;;;;;;;6314284;28;20261;-62
2023/05/07 09:33:10;;;;;;;7.03;6.43;;;;;;;;;;6321095;28;20200;-62
2023/05/07 09:36:11;;;;;;;6.23;5.73;;;;;;;;;;6308529;28;20231;-60
2023/05/07 09:39:13;;;;;;;6.60;5.90;;;;;;;;;;6287925;28;20194;-60
2023/05/07 09:42:17;;;;;;;6.83;6.23;;;;;;;;;;6292002;28;20258;-60
2023/05/07 09:45:30;;;;;;;5.80;5.30;;;;;;;;;;6284649;28;20185;-60
2023/05/07 09:48:32;;;;;;;6.20;5.80;;;;;;;;;;6313135;28;20239;-59
2023/05/07 09:51:46;;;;;;;6.13;5.57;;;;;;;;;;6294606;28;20204;-59
2023/05/07 09:54:48;;;;;;;5.03;4.53;;;;;;;;;;6295169;28;20182;-60
2023/05/07 09:57:52;;;;;;;5.97;5.43;;;;;;;;;;6319028;28;20186;-60
2023/05/07 10:00:53;;;;;;;6.03;5.43;;;;;;;;;;6291438;28;20185;-60
2023/05/07 10:03:55;;;;;;;5.10;4.70;;;;;;;;;;6301880;28;20188;-60
2023/05/07 10:06:56;;;;;;;5.20;4.70;;;;;;;;;;6286952;28;20197;-59
2023/05/07 10:09:58;;;;;;;5.60;5.10;;;;;;;;;;6293028;28;20215;-59
2023/05/07 10:12:59;;;;;;;6.57;5.13;;;;;;;;;;6287265;28;20189;-59
2023/05/07 10:16:01;;;;;;;5.27;4.77;;;;;;;;;;6302179;28;20189;-59
2023/05/07 10:19:03;;;;;;;5.30;4.80;;;;;;;;;;6288030;28;20296;-61
2023/05/07 10:22:05;;;;;;;4.97;4.57;;;;;;;;;;6292611;28;20197;-62
2023/05/07 10:25:17;;;;;;;5.80;4.70;;;;;;;;;;6292739;28;20208;-62
2023/05/07 10:28:20;;;;;;;6.03;4.57;;;;;;;;;;6305844;28;20214;-63
2023/05/07 10:31:40;;;;;;;7.03;4.50;;;;;;;;;;6298008;28;20197;-61
2023/05/07 10:34:42;;;;;;;7.03;4.50;;;;;;;;;;6302579;28;20224;-62
2023/05/07 10:37:44;;;;;;;3.33;3.03;;;;;;;;;;6315421;28;20336;-62
2023/05/07 10:40:45;;;;;;;4.17;3.87;;;;;;;;;;6309585;28;20260;-61
2023/05/07 10:43:46;;;;;;;4.30;3.90;;;;;;;;;;6291439;28;20189;-62
2023/05/07 10:47:04;;;;;;;3.80;3.47;;;;;;;;;;6318830;28;20241;-60
2023/05/07 10:50:05;;;;;;;4.30;4.00;;;;;;;;;;6321554;28;20224;-61
2023/05/07 10:53:18;;;;;;;4.37;4.03;;;;;;;;;;6319951;28;20284;-61
2023/05/07 10:56:20;;;;;;;4.13;3.83;;;;;;;;;;6311424;28;20281;-62
2023/05/07 10:59:21;;;;;;;3.60;3.30;;;;;;;;;;6311126;28;20196;-61
2023/05/07 11:02:22;;;;;;;3.60;3.30;;;;;;;;;;6298603;28;20276;-61
2023/05/07 11:05:23;;;;;;;3.80;3.50;;;;;;;;;;6267746;28;20201;-62
2023/05/07 11:08:24;;;;;;;3.47;3.17;;;;;;;;;;6304355;28;20654;-62
2023/05/07 11:11:44;;;;;;;3.70;3.40;;;;;;;;;;6299035;28;20235;-59
2023/05/07 11:14:45;;;;;;;4.97;4.00;;;;;;;;;;6278856;28;20339;-60
2023/05/07 11:17:53;;;;;;;4.03;3.80;;;;;;;;;;6305520;28;20200;-61
2023/05/07 11:20:59;;;;;;;3.73;3.43;;;;;;;;;;6316926;28;20189;-61
2023/05/07 11:24:00;;;;;;;3.10;2.83;;;;;;;;;;6297342;28;20225;-60
2023/05/07 11:27:02;;;;;;;2.77;2.57;;;;;;;;;;6307974;28;20189;-61
2023/05/07 11:30:03;;;;;;;2.97;2.77;;;;;;;;;;6277245;28;20230;-61
2023/05/07 11:33:04;;;;;;;4.40;3.60;;;;;;;;;;6312361;28;20186;-61
2023/05/07 11:36:06;;;;;;;3.43;3.03;;;;;;;;;;6299054;28;20228;-60
2023/05/07 11:39:23;;;;;;;3.73;2.90;;;;;;;;;;6314716;28;20185;-59
2023/05/07 11:42:28;;;;;;;3.50;3.20;;;;;;;;;;6303768;28;20197;-60
2023/05/07 11:45:29;;;;;;;2.90;2.60;;;;;;;;;;6307445;28;20197;-60
2023/05/07 11:48:30;;;;;;;3.00;2.60;;;;;;;;;;6299102;28;20205;-60
2023/05/07 11:51:32;;;;;;;3.23;2.93;;;;;;;;;;6282800;28;20194;-60
2023/05/07 11:54:39;;;;;;;3.30;2.97;;;;;;;;;;6294927;28;20244;-60
2023/05/07 11:57:41;;;;;;;3.93;2.70;;;;;;;;;;6292392;28;20204;-60
2023/05/07 12:00:49;;;;;;;4.33;2.47;;;;;;;;;;6306606;28;20192;-61
2023/05/07 12:03:50;;;;;;;2.43;2.23;;;;;;;;;;6309662;28;20182;-60
2023/05/07 12:06:55;;;;;;;2.70;1.87;;;;;;;;;;6297739;28;20232;-60
2023/05/07 12:09:56;;;;;;;3.80;1.77;;;;;;;;;;6330550;28;20197;-61
2023/05/07 12:12:57;;;;;;;2.40;1.67;;;;;;;;;;6272787;28;20189;-61
2023/05/07 12:15:58;;;;;;;2.07;1.87;;;;;;;;;;6289652;28;20271;-59
2023/05/07 12:18:59;;;;;;;2.10;1.83;;;;;;;;;;6290621;28;20279;-60
2023/05/07 12:22:00;;;;;;;3.33;2.20;;;;;;;;;;6278612;28;20201;-60
2023/05/07 12:25:02;;;;;;;2.73;2.20;;;;;;;;;;6287326;28;20201;-60
2023/05/07 12:28:04;;;;;;;2.40;2.17;;;;;;;;;;6304601;28;20212;-61
2023/05/07 12:31:06;;;;;;;3.50;2.30;;;;;;;;;;6291298;28;20238;-60
2023/05/07 12:34:07;;;;;;;2.33;2.13;;;;;;;;;;6277703;28;20193;-60
2023/05/07 12:37:08;;;;;;;4.03;1.80;;;;;;;;;;6285201;28;20232;-60
2023/05/07 12:40:10;;;;;;;2.43;2.10;;;;;;;;;;6281613;28;20199;-61
2023/05/07 12:43:20;;;;;;;7.97;2.43;;;;;;;;;;6297961;28;20189;-62
2023/05/07 12:46:23;;;;;;;4.90;2.87;;;;;;;;;;6307203;28;20178;-61
2023/05/07 12:49:25;;;;;;;6.07;2.40;;;;;;;;;;6292517;28;20225;-60
2023/05/07 12:52:26;;;;;;;2.27;2.07;;;;;;;;;;6299798;28;20287;-61
2023/05/07 12:55:27;;;;;;;7.83;3.23;;;;;;;;;;6288425;28;20200;-59
2023/05/07 12:58:29;;;;;;;4.20;3.57;;;;;;;;;;6292826;28;20284;-59
2023/05/07 13:01:31;;;;;;;3.90;3.50;;;;;;;;;;6294001;28;20200;-61
2023/05/07 13:04:32;;;;;;;5.53;4.50;;;;;;;;;;6289573;28;20307;-60
2023/05/07 13:07:33;;;;;;;7.00;4.60;;;;;;;;;;6295528;28;20209;-61
2023/05/07 13:10:34;;;;;;;6.00;5.27;;;;;;;;;;6306145;28;20211;-61
2023/05/07 13:13:36;;;;;;;6.00;5.40;;;;;;;;;;6285217;28;20220;-60
2023/05/07 13:16:37;;;;;;;8.57;5.90;;;;;;;;;;6300806;28;20188;-60
2023/05/07 13:19:38;;;;;;;6.17;5.67;;;;;;;;;;6272097;28;20201;-60
2023/05/07 13:22:40;;;;;;;7.07;6.07;;;;;;;;;;6305679;28;20203;-59
2023/05/07 13:25:41;;;;;;;8.33;7.63;;;;;;;;;;6298519;28;20202;-59
2023/05/07 13:28:43;;;;;;;7.87;7.17;;;;;;;;;;6272636;28;20233;-59
2023/05/07 13:31:44;;;;;;;9.17;8.27;;;;;;;;;;6302064;28;20208;-60
2023/05/07 13:34:45;;;;;;;11.40;10.20;;;;;;;;;;6296942;28;20197;-59
2023/05/07 13:37:48;;;;;;;15.30;12.67;;;;;;;;;;6288819;28;20243;-58
2023/05/07 13:40:49;;;;;;;14.50;13.07;;;;;;;;;;6286742;28;20193;-59
2023/05/07 13:43:50;;;;;;;15.20;13.63;;;;;;;;;;6281450;28;20201;-59
2023/05/07 13:46:51;;;;;;;15.73;14.07;;;;;;;;;;6295369;28;20200;-59
2023/05/07 13:49:52;;;;;;;16.83;15.03;;;;;;;;;;6285205;28;20212;-59
2023/05/07 13:52:53;;;;;;;19.33;17.30;;;;;;;;;;6284528;28;20192;-59
2023/05/07 13:55:54;;;;;;;19.10;15.53;;;;;;;;;;6293135;28;20189;-59
2023/05/07 13:58:55;;;;;;;17.77;16.03;;;;;;;;;;6289120;28;20247;-60
2023/05/07 14:01:56;;;;;;;19.40;17.27;;;;;;;;;;6305602;28;20240;-59
2023/05/07 14:04:57;;;;;;;23.83;18.47;;;;;;;;;;6298783;28;20235;-60
2023/05/07 14:07:58;;;;;;;20.73;17.93;;;;;;;;;;6297083;28;20209;-59
2023/05/07 14:10:59;;;;;;;20.97;18.73;;;;;;;;;;6284954;28;20197;-60
2023/05/07 14:14:00;;;;;;;24.17;18.17;;;;;;;;;;6285823;28;20193;-62
2023/05/07 14:17:01;;;;;;;22.53;17.53;;;;;;;;;;6299383;28;20193;-60
2023/05/07 14:20:03;;;;;;;20.13;17.07;;;;;;;;;;6298137;28;20193;-61
2023/05/07 14:23:04;;;;;;;21.67;17.67;;;;;;;;;;6302046;28;20192;-59
2023/05/07 14:26:05;;;;;;;20.57;18.43;;;;;;;;;;6291242;28;20228;-60
2023/05/07 14:29:06;;;;;;;21.13;18.33;;;;;;;;;;6299844;28;20217;-62
2023/05/07 14:32:07;;;;;;;17.83;15.90;;;;;;;;;;6290711;28;20255;-60
2023/05/07 14:35:08;;;;;;;19.10;16.77;;;;;;;;;;6319866;28;20192;-62
2023/05/07 14:38:09;;;;;;;16.77;14.80;;;;;;;;;;6301132;28;20268;-59
2023/05/07 14:41:10;;;;;;;15.60;14.00;;;;;;;;;;6279370;28;20288;-59
2023/05/07 14:44:11;;;;;;;13.90;12.57;;;;;;;;;;6306835;28;20201;-60
2023/05/07 14:47:13;;;;;;;13.43;11.83;;;;;;;;;;6308762;28;20258;-59
2023/05/07 14:50:14;;;;;;;14.60;12.77;;;;;;;;;;6285366;28;20207;-60
2023/05/07 14:53:16;;;;;;;12.60;11.30;;;;;;;;;;6287083;28;20256;-59
2023/05/07 14:56:17;;;;;;;13.13;11.80;;;;;;;;;;6320761;28;20232;-60
2023/05/07 14:59:20;;;;;;;13.70;12.40;;;;;;;;;;6316898;28;20257;-60
2023/05/07 15:02:21;;;;;;;14.53;12.70;;;;;;;;;;6313456;28;20208;-60
2023/05/07 15:05:22;;;;;;;12.57;11.33;;;;;;;;;;6284078;28;20287;-59
2023/05/07 15:08:23;;;;;;;13.23;11.93;;;;;;;;;;6298229;28;20253;-59
2023/05/07 15:11:24;;;;;;;14.63;12.47;;;;;;;;;;6337777;28;20248;-58
2023/05/07 15:14:26;;;;;;;13.60;11.53;;;;;;;;;;6329655;28;20219;-59
2023/05/07 15:17:27;;;;;;;12.40;11.20;;;;;;;;;;6309870;28;20199;-59
2023/05/07 15:20:28;;;;;;;12.43;11.23;;;;;;;;;;6297299;28;20224;-59
2023/05/07 15:23:29;;;;;;;14.73;12.80;;;;;;;;;;6281831;28;20264;-59
2023/05/07 15:26:30;;;;;;;15.83;13.20;;;;;;;;;;6310536;28;20190;-60
2023/05/07 15:29:31;;;;;;;15.47;13.70;;;;;;;;;;6294261;28;20263;-59
2023/05/07 15:32:32;;;;;;;15.00;13.43;;;;;;;;;;6284946;28;20189;-59
2023/05/07 15:35:33;;;;;;;14.97;12.63;;;;;;;;;;6274570;28;20181;-59
2023/05/07 15:38:34;;;;;;;13.37;12.13;;;;;;;;;;6303906;28;20241;-59
2023/05/07 15:41:36;;;;;;;13.37;11.97;;;;;;;;;;6306890;28;20189;-59
2023/05/07 15:44:38;;;;;;;12.77;11.57;;;;;;;;;;6288756;28;20250;-59
2023/05/07 15:47:39;;;;;;;14.27;12.80;;;;;;;;;;6280871;28;20212;-59
2023/05/07 15:50:40;;;;;;;14.97;12.90;;;;;;;;;;6293415;28;20187;-60
2023/05/07 15:53:41;;;;;;;20.27;13.30;;;;;;;;;;6295318;28;20287;-60
2023/05/07 15:56:42;;;;;;;13.33;12.17;;;;;;;;;;6323334;28;20256;-60
2023/05/07 15:59:43;;;;;;;14.13;12.00;;;;;;;;;;6294789;28;20195;-59
2023/05/07 16:02:44;;;;;;;16.60;14.27;;;;;;;;;;6303303;28;20193;-58
2023/05/07 16:05:45;;;;;;;17.10;12.30;;;;;;;;;;6296254;28;20288;-59
2023/05/07 16:08:47;;;;;;;14.77;13.17;;;;;;;;;;6327206;28;20205;-60
2023/05/07 16:11:48;;;;;;;16.03;13.13;;;;;;;;;;6287703;28;20189;-59
2023/05/07 16:14:50;;;;;;;13.27;11.90;;;;;;;;;;6320949;28;20194;-61
2023/05/07 16:17:56;;;;;;;13.70;12.40;;;;;;;;;;6293026;28;20229;-60
2023/05/07 16:20:59;;;;;;;13.73;12.37;;;;;;;;;;6311341;28;20196;-60
2023/05/07 16:24:00;;;;;;;14.03;12.73;;;;;;;;;;6306062;28;20197;-58
2023/05/07 16:27:01;;;;;;;15.30;12.23;;;;;;;;;;6315811;28;20192;-60
2023/05/07 16:30:02;;;;;;;13.30;12.00;;;;;;;;;;6281171;28;20203;-59
2023/05/07 16:33:03;;;;;;;14.73;13.43;;;;;;;;;;6290168;28;20188;-59
2023/05/07 16:36:04;;;;;;;14.07;12.67;;;;;;;;;;6303605;28;20339;-59
2023/05/07 16:39:05;;;;;;;13.37;11.97;;;;;;;;;;6300312;28;20260;-59
2023/05/07 16:42:07;;;;;;;13.03;11.73;;;;;;;;;;6310913;28;20189;-58
2023/05/07 16:45:08;;;;;;;13.30;11.90;;;;;;;;;;6316201;28;20271;-59
2023/05/07 16:48:09;;;;;;;11.90;10.70;;;;;;;;;;6299560;28;20336;-60
2023/05/07 16:51:10;;;;;;;10.43;9.33;;;;;;;;;;6324188;28;20186;-59
2023/05/07 16:54:11;;;;;;;11.67;10.57;;;;;;;;;;6306440;28;20189;-59
2023/05/07 16:57:12;;;;;;;13.47;12.17;;;;;;;;;;6304414;28;20283;-59
2023/05/07 17:00:14;;;;;;;11.67;10.57;;;;;;;;;;6314577;28;20189;-60
2023/05/07 17:03:15;;;;;;;13.27;11.97;;;;;;;;;;6303162;28;20334;-60
2023/05/07 17:06:16;;;;;;;12.97;11.87;;;;;;;;;;6308092;28;20189;-60
2023/05/07 17:09:17;;;;;;;11.37;10.37;;;;;;;;;;6289767;28;20243;-60
2023/05/07 17:12:18;;;;;;;13.07;11.80;;;;;;;;;;6298167;28;20223;-60
2023/05/07 17:15:19;;;;;;;14.20;12.80;;;;;;;;;;6293680;28;20196;-60
2023/05/07 17:18:20;;;;;;;13.53;12.33;;;;;;;;;;6286269;28;20194;-60
2023/05/07 17:21:21;;;;;;;13.30;12.00;;;;;;;;;;6290736;28;20240;-61
2023/05/07 17:24:22;;;;;;;12.17;10.97;;;;;;;;;;6284708;28;20205;-60
2023/05/07 17:27:24;;;;;;;12.40;11.30;;;;;;;;;;6295943;28;20241;-60
2023/05/07 17:30:25;;;;;;;13.70;12.10;;;;;;;;;;6310422;28;20184;-59
2023/05/07 17:33:26;;;;;;;11.40;10.33;;;;;;;;;;6304328;28;20186;-60
2023/05/07 17:36:27;;;;;;;12.33;11.13;;;;;;;;;;6307848;28;20248;-60